Time;durP1;ratioP1;P1;durP2;ratioP2;P2;SDS_P1;SDS_P2;PMS_P1;PMS_P2;Temp;Humidity;BMP_temperature;BMP_pressure;BME280_temperature;BME280_humidity;BME280_pressure;Samples;Min_cycle;Max_cycle;Signal;HPM_P1;HPM_P2
2021/09/08 00:00:10;;;;;;;;;0.00;0.00;;;;;22.30;40.93;101105.25;5014394;28;74598;-86
2021/09/08 00:02:38;;;;;;;;;0.00;0.00;;;;;22.03;40.67;101076.94;4996906;28;45524;-83
2021/09/08 00:05:19;;;;;;;;;0.00;0.00;;;;;22.20;41.48;101103.81;4993678;28;45462;-87
2021/09/08 00:07:55;;;;;;;;;;;;;;;;;;;;;
2021/09/08 00:10:23;;;;;;;;;0.00;0.00;;;;;22.39;41.40;101146.47;5018512;28;76969;-86
2021/09/08 00:13:25;;;;;;;;;0.00;0.00;;;;;21.66;41.25;101019.91;4999937;28;46843;-87
2021/09/08 00:16:11;;;;;;;;;0.25;0.25;;;;;21.58;41.36;101004.25;4999584;28;45557;-84
2021/09/08 00:19:08;;;;;;;;;1.00;0.00;;;;;22.88;41.90;101218.19;5015968;28;45579;-88
2021/09/08 00:21:59;;;;;;;;;0.00;0.00;;;;;22.59;41.66;101176.75;5005535;28;45937;-85
2021/09/08 00:24:53;;;;;;;;;0.00;0.00;;;;;21.70;41.81;101015.34;5066485;28;46216;-87
2021/09/08 00:27:27;;;;;;;;;0.00;0.00;;;;;22.87;41.63;101210.25;5059402;28;45525;-86
2021/09/08 00:30:08;;;;;;;;;0.00;0.00;;;;;22.16;42.32;101095.09;5060181;28;45370;-85
2021/09/08 00:32:49;;;;;;;;;0.00;0.00;;;;;21.82;41.97;101037.94;5062451;28;47592;-86
2021/09/08 00:35:38;;;;;;;;;0.00;0.00;;;;;22.51;42.24;101140.72;5076799;28;45506;-86
2021/09/08 00:38:23;;;;;;;;;0.00;0.00;;;;;22.78;41.74;101187.56;5041252;28;45606;-82
2021/09/08 00:41:11;;;;;;;;;0.00;0.00;;;;;22.84;41.79;101191.78;5060724;28;45327;-81
2021/09/08 00:50:53;;;;;;;;;0.00;0.00;;;;;21.65;42.27;101007.56;5029064;28;45364;-81
2021/09/08 00:58:12;;;;;;;;;0.00;0.00;;;;;21.33;42.31;100975.94;4992082;28;46522;-83
2021/09/08 01:04:01;;;;;;;;;2.00;0.75;;;;;21.22;42.54;100964.84;5002578;28;45523;-85
2021/09/08 01:09:59;;;;;;;;;0.00;0.00;;;;;21.56;42.86;101035.22;5055128;28;46309;-83
2021/09/08 01:16:23;;;;;;;;;0.00;0.00;;;;;21.05;43.59;100970.66;5055034;28;45452;-87
2021/09/08 01:19:38;;;;;;;;;2.00;1.00;;;;;21.18;43.56;101008.19;5068666;28;45325;-83
2021/09/08 01:22:34;;;;;;;;;0.00;0.00;;;;;21.34;43.78;101032.38;5084988;27;45615;-83
2021/09/08 01:25:40;;;;;;;;;0.00;0.00;;;;;21.80;43.86;101108.69;5080008;28;45221;-84
2021/09/08 01:32:17;;;;;;;;;0.00;0.00;;;;;20.96;43.08;100988.59;5081795;27;45325;-84
2021/09/08 01:35:35;;;;;;;;;0.00;0.00;;;;;22.03;43.53;101145.03;5086168;27;45509;-83
2021/09/08 01:38:41;;;;;;;;;0.25;0.00;;;;;20.83;43.35;100950.16;4971922;28;45602;-85
2021/09/08 01:41:40;;;;;;;;;0.50;0.50;;;;;20.87;43.60;100965.91;4963661;28;45250;-87
2021/09/08 01:51:40;;;;;;;;;0.25;0.25;;;;;20.95;44.01;100981.53;5064754;27;45659;-84
2021/09/08 01:54:05;;;;;;;;;0.25;0.00;;;;;20.48;43.80;100910.66;5083570;28;45275;-85
2021/09/08 02:00:32;;;;;;;;;0.25;0.00;;;;;21.76;44.49;101126.44;5078290;28;46266;-83
2021/09/08 02:03:00;;;;;;;;;3.00;1.00;;;;;21.22;44.85;101041.63;5089141;27;45592;-85
2021/09/08 02:05:34;;;;;;;;;0.00;0.00;;;;;21.13;44.47;101018.91;5082231;27;45434;-86
2021/09/08 02:08:43;;;;;;;;;0.00;0.00;;;;;21.43;44.50;101073.59;5081959;27;45472;-84
2021/09/08 02:12:11;;;;;;;;;;;;;;;;;;;;;
2021/09/08 02:20:49;;;;;;;;;0.00;0.00;;;;;20.40;44.73;100891.50;5018416;28;45864;-82
2021/09/08 02:23:41;;;;;;;;;0.00;0.00;;;;;21.57;45.29;101095.22;5002114;28;47323;-86
2021/09/08 02:34:02;;;;;;;;;0.00;0.00;;;;;21.57;45.32;101082.00;5001067;28;45616;-85
2021/09/08 02:36:50;;;;;;;;;;;;;;;;;;;;;
2021/09/08 02:39:34;;;;;;;;;0.75;0.00;;;;;20.11;45.53;100855.34;5056613;27;71795;-87
2021/09/08 02:53:14;;;;;;;;;0.25;0.25;;;;;20.50;46.01;100948.50;5079437;28;45507;-84
2021/09/08 02:56:46;;;;;;;;;0.00;0.00;;;;;20.26;46.17;100906.00;5092367;27;45423;-85
2021/09/08 02:59:12;;;;;;;;;0.25;0.25;;;;;20.35;46.47;100929.53;5058552;28;45642;-81
2021/09/08 03:01:50;;;;;;;;;1.00;1.00;;;;;19.86;46.42;100850.75;5081328;27;45793;-86
2021/09/08 03:04:54;;;;;;;;;0.50;0.00;;;;;19.96;46.32;100858.38;5080551;28;45460;-83
2021/09/08 03:07:45;;;;;;;;;0.00;0.00;;;;;21.08;46.44;101050.84;5078419;27;45341;-82
2021/09/08 03:10:33;;;;;;;;;0.25;0.25;;;;;20.53;46.69;100961.63;5081581;28;45650;-81
2021/09/08 03:13:43;;;;;;;;;0.25;0.25;;;;;20.11;46.75;100875.59;5081786;27;45585;-85
2021/09/08 03:17:16;;;;;;;;;;;;;;;;;;;;;
2021/09/08 03:20:31;;;;;;;;;1.25;1.00;;;;;20.07;47.21;100884.53;5077285;27;69604;-83
2021/09/08 03:26:26;;;;;;;;;0.00;0.00;;;;;20.37;47.29;100922.41;5060326;28;46300;-82
2021/09/08 03:29:51;;;;;;;;;0.00;0.00;;;;;20.07;47.38;100876.59;5061004;28;45312;-82
2021/09/08 03:32:16;;;;;;;;;0.00;0.00;;;;;20.32;47.59;100932.25;5011976;28;45508;-82
2021/09/08 03:35:35;;;;;;;;;;;;;;;;;;;;;
2021/09/08 03:48:15;;;;;;;;;3.25;1.75;;;;;19.72;47.86;100816.78;5012501;28;45745;-81
2021/09/08 03:54:34;;;;;;;;;;;;;;;;;;;;;
2021/09/08 03:57:47;;;;;;;;;0.00;0.00;;;;;20.77;48.32;100998.84;5018906;28;69171;-80
2021/09/08 04:10:23;;;;;;;;;;;;;;;;;;;;;
2021/09/08 04:34:07;;;;;;;;;;;;;;;;;;;;;
2021/09/08 04:37:06;;;;;;;;;0.00;0.00;;;;;19.80;49.62;100824.50;5079400;27;68101;-83
2021/09/08 04:40:22;;;;;;;;;0.25;0.25;;;;;19.60;49.81;100785.47;5079723;27;45650;-81
2021/09/08 04:43:18;;;;;;;;;1.00;0.00;;;;;19.87;49.49;100833.97;5072771;28;47514;-81
2021/09/08 04:46:13;;;;;;;;;1.00;1.00;;;;;20.74;49.27;100985.69;5077801;28;45550;-80
2021/09/08 04:52:18;;;;;;;;;;;;;;;;;;;;;
2021/09/08 04:55:07;;;;;;;;;1.00;1.00;;;;;19.55;50.14;100768.88;4981762;28;76866;-83
2021/09/08 04:58:55;;;;;;;;;2.00;1.00;;;;;20.07;50.24;100859.00;5008727;28;45439;-83
2021/09/08 05:01:39;;;;;;;;;0.00;0.00;;;;;19.80;50.08;100810.41;4970899;28;45549;-81
2021/09/08 05:04:21;;;;;;;;;0.00;0.00;;;;;20.05;50.27;100838.78;5052062;28;45551;-85
2021/09/08 05:10:27;;;;;;;;;0.50;0.50;;;;;19.95;50.80;100846.09;5078309;28;45451;-84
2021/09/08 05:13:03;;;;;;;;;1.00;1.00;;;;;20.43;50.79;100934.56;5105185;27;45427;-81
2021/09/08 05:15:40;;;;;;;;;2.50;0.50;;;;;20.25;51.07;100928.06;5071629;28;45549;-84
2021/09/08 05:18:05;;;;;;;;;0.00;0.00;;;;;20.02;51.01;100878.50;5081933;28;46218;-84
2021/09/08 05:20:33;;;;;;;;;1.00;1.00;;;;;19.81;51.10;100854.44;5078529;28;45274;-78
2021/09/08 05:24:03;;;;;;;;;0.25;0.25;;;;;20.53;51.14;100972.19;5080649;27;45286;-88
2021/09/08 05:26:37;;;;;;;;;0.00;0.00;;;;;19.31;51.33;100768.66;5092140;27;45530;-83
2021/09/08 05:29:31;;;;;;;;;0.75;0.75;;;;;20.61;51.18;100972.81;5080158;28;48333;-86
2021/09/08 05:32:35;;;;;;;;;0.00;0.00;;;;;19.31;50.91;100760.75;5080731;28;45584;-84
2021/09/08 05:38:35;;;;;;;;;1.00;0.00;;;;;19.77;50.80;100836.91;5080631;27;45427;-87
2021/09/08 05:41:05;;;;;;;;;1.50;1.00;;;;;19.07;51.23;100731.44;5082320;27;46416;-80
2021/09/08 05:43:34;;;;;;;;;0.00;0.00;;;;;20.51;51.28;100972.25;5083452;27;45223;-86
2021/09/08 05:46:08;;;;;;;;;0.00;0.00;;;;;20.53;51.56;100972.19;5085710;28;45406;-83
2021/09/08 05:48:54;;;;;;;;;0.75;0.00;;;;;19.30;51.18;100756.38;5084335;28;45266;-81
2021/09/08 05:51:22;;;;;;;;;0.75;0.75;;;;;19.95;51.12;100852.25;5087213;27;46809;-86
2021/09/08 05:53:50;;;;;;;;;3.00;0.00;;;;;19.62;51.01;100796.84;5084915;27;45471;-79
2021/09/08 05:56:29;;;;;;;;;0.25;0.25;;;;;19.44;51.20;100763.91;5111886;27;45239;-80
2021/09/08 06:02:00;;;;;;;;;1.00;0.75;;;;;19.67;50.72;100781.75;5078596;27;46255;-84
2021/09/08 06:04:25;;;;;;;;;0.25;0.00;;;;;20.91;50.76;100974.63;5082705;28;45355;-84
2021/09/08 06:06:55;;;;;;;;;1.75;1.00;;;;;20.69;51.16;100940.00;5084651;28;45544;-85
2021/09/08 06:09:21;;;;;;;;;1.50;1.50;;;;;20.62;50.52;100916.38;5084963;27;45413;-82
2021/09/08 06:11:49;;;;;;;;;0.00;0.00;;;;;20.46;50.58;100878.13;5081223;27;47811;-81
2021/09/08 06:14:20;;;;;;;;;1.25;0.00;;;;;21.16;50.42;100978.28;5082350;28;45587;-82
2021/09/08 06:16:46;;;;;;;;;0.00;0.00;;;;;20.04;49.82;100792.16;5081899;28;45457;-83
2021/09/08 06:19:17;;;;;;;;;0.25;0.25;;;;;20.43;50.16;100849.13;5082862;27;45650;-81
2021/09/08 06:21:42;;;;;;;;;2.00;1.00;;;;;20.32;50.24;100837.09;5081486;27;46700;-82
2021/09/08 06:24:10;;;;;;;;;1.25;1.25;;;;;19.83;50.11;100757.50;5085923;27;45413;-81
2021/09/08 06:26:35;;;;;;;;;0.00;0.00;;;;;19.98;50.47;100774.69;5080861;28;45414;-82
2021/09/08 06:29:01;;;;;;;;;0.00;0.00;;;;;20.33;50.71;100848.53;5086067;27;45175;-82
2021/09/08 06:31:26;;;;;;;;;1.25;1.00;;;;;19.84;50.60;100775.06;5082863;28;47326;-81
2021/09/08 06:33:52;;;;;;;;;1.75;1.50;;;;;20.94;50.62;100963.06;5082550;28;45327;-81
2021/09/08 06:36:17;;;;;;;;;2.00;2.00;;;;;20.63;50.70;100896.97;5082622;28;45880;-81
2021/09/08 06:38:43;;;;;;;;;0.00;0.00;;;;;20.06;50.70;100801.75;5117999;27;45342;-82
2021/09/08 06:41:09;;;;;;;;;2.50;1.50;;;;;19.54;50.40;100696.72;5084283;28;46336;-82
2021/09/08 06:43:37;;;;;;;;;0.00;0.00;;;;;20.09;50.16;100769.09;5087498;27;45447;-83
2021/09/08 06:46:05;;;;;;;;;1.00;0.50;;;;;20.68;50.35;100867.72;5088405;27;45486;-81
2021/09/08 06:48:31;;;;;;;;;0.00;0.00;;;;;19.97;50.08;100726.25;5087505;28;45319;-81
2021/09/08 06:50:56;;;;;;;;;1.00;1.00;;;;;20.72;49.91;100845.56;5083407;27;46379;-83
2021/09/08 06:53:21;;;;;;;;;2.25;2.25;;;;;20.60;50.25;100814.22;5082232;27;45326;-82
2021/09/08 06:55:49;;;;;;;;;1.00;1.00;;;;;21.09;49.86;100877.03;5081516;28;45326;-82
2021/09/08 06:58:22;;;;;;;;;2.75;1.00;;;;;21.30;50.02;100890.44;5082979;27;45543;-82
2021/09/08 07:00:56;;;;;;;;;0.75;0.75;;;;;20.17;49.66;100695.72;5082992;27;45303;-82
2021/09/08 07:03:24;;;;;;;;;1.25;0.00;;;;;20.97;49.30;100813.03;5081248;28;45272;-81
2021/09/08 07:05:49;;;;;;;;;1.75;0.00;;;;;20.62;49.97;100733.06;5080352;28;45671;-80
2021/09/08 07:08:16;;;;;;;;;0.00;0.00;;;;;21.32;48.92;100843.63;5080638;28;45652;-80
2021/09/08 07:10:41;;;;;;;;;1.00;1.00;;;;;21.92;49.19;100929.88;5080188;27;45571;-80
2021/09/08 07:13:08;;;;;;;;;1.00;1.00;;;;;22.02;48.52;100937.41;5088419;27;46115;-79
2021/09/08 07:15:33;;;;;;;;;0.50;0.50;;;;;22.10;48.46;100942.44;5082675;27;45536;-80
2021/09/08 07:18:00;;;;;;;;;0.00;0.00;;;;;22.17;48.94;100940.41;5081718;28;45456;-79
2021/09/08 07:20:25;;;;;;;;;0.00;0.00;;;;;22.22;48.75;100938.47;5081207;28;47479;-79
2021/09/08 07:22:51;;;;;;;;;0.00;0.00;;;;;22.22;47.83;100938.47;5085216;27;45467;-80
2021/09/08 07:25:17;;;;;;;;;0.00;0.00;;;;;22.15;48.24;100921.06;5102366;27;45294;-80
2021/09/08 07:27:42;;;;;;;;;0.00;0.00;;;;;22.24;48.18;100926.00;5083079;28;45474;-80
2021/09/08 07:30:08;;;;;;;;;1.00;1.00;;;;;22.12;48.16;100898.19;5080832;28;47172;-78
2021/09/08 07:32:33;;;;;;;;;0.25;0.00;;;;;22.18;48.47;100902.41;5082955;27;45419;-80
2021/09/08 07:34:59;;;;;;;;;0.25;0.25;;;;;22.31;48.10;100912.50;5082912;27;45250;-80
2021/09/08 07:37:27;;;;;;;;;1.00;0.50;;;;;22.50;48.08;100928.59;5083259;27;45425;-79
2021/09/08 07:39:54;;;;;;;;;0.00;0.00;;;;;22.27;47.92;100885.28;5080793;28;47071;-78
2021/09/08 07:42:19;;;;;;;;;1.00;1.00;;;;;22.32;48.09;100878.00;5083005;28;45298;-78
2021/09/08 07:44:45;;;;;;;;;0.25;0.25;;;;;22.55;48.07;100909.84;5081414;28;45481;-78
2021/09/08 07:47:11;;;;;;;;;0.00;0.00;;;;;22.52;47.84;100897.56;5083047;27;45310;-80
2021/09/08 07:49:36;;;;;;;;;0.00;0.00;;;;;22.68;47.33;100912.91;5081353;28;47135;-78
2021/09/08 07:52:02;;;;;;;;;1.00;0.75;;;;;22.52;47.71;100893.16;5082751;27;45262;-77
2021/09/08 07:54:29;;;;;;;;;1.00;0.75;;;;;22.58;47.56;100884.09;5083259;27;45219;-77
2021/09/08 07:56:58;;;;;;;;;0.00;0.00;;;;;22.60;47.82;100873.44;5081976;28;45453;-82
2021/09/08 07:59:23;;;;;;;;;1.25;0.75;;;;;22.91;47.36;100915.50;5116144;27;48521;-79
2021/09/08 08:01:59;;;;;;;;;1.00;1.00;;;;;22.89;47.54;100903.22;5093010;27;45645;-87
2021/09/08 08:04:24;;;;;;;;;1.00;1.00;;;;;22.97;47.41;100909.06;5098918;27;45508;-82
2021/09/08 08:07:10;;;;;;;;;0.25;0.25;;;;;22.52;47.63;100832.13;5096133;27;45488;-82
2021/09/08 08:09:41;;;;;;;;;3.00;0.00;;;;;22.95;47.35;100899.44;5074133;27;46768;-83
2021/09/08 08:12:29;;;;;;;;;0.50;0.50;;;;;23.08;47.53;100923.69;5090681;27;45877;-81
2021/09/08 08:14:55;;;;;;;;;0.50;0.50;;;;;22.08;47.40;100756.06;5084080;27;45359;-82
2021/09/08 08:17:30;;;;;;;;;0.00;0.00;;;;;22.68;47.01;100849.22;5088590;27;45390;-80
2021/09/08 08:20:57;;;;;;;;;1.75;1.00;;;;;22.83;46.91;100861.00;5101316;27;45955;-79
2021/09/08 08:24:18;;;;;;;;;2.00;0.00;;;;;23.23;47.66;100919.53;5024248;28;45302;-79
2021/09/08 08:27:28;;;;;;;;;1.25;0.00;;;;;23.28;46.77;100907.78;5048705;28;45337;-79
2021/09/08 08:30:15;;;;;;;;;2.00;0.25;;;;;22.86;47.21;100829.03;5036247;28;45295;-81
2021/09/08 08:32:46;;;;;;;;;0.75;0.75;;;;;23.10;47.11;100860.78;5046140;27;48276;-80
2021/09/08 08:35:15;;;;;;;;;2.00;0.25;;;;;22.57;47.04;100744.41;5081075;27;45363;-80
2021/09/08 08:41:14;;;;;;;;;5.00;1.00;;;;;23.00;46.85;100793.97;5084789;27;45462;-80
2021/09/08 08:47:35;;;;;;;;;0.00;0.00;;;;;22.90;46.58;100745.72;5005216;27;45589;-84
2021/09/08 08:50:04;;;;;;;;;0.75;0.00;;;;;23.48;46.46;100821.13;5099290;27;45478;-81
2021/09/08 08:52:32;;;;;;;;;1.50;1.50;;;;;23.62;46.68;100823.16;5093523;27;45355;-80
2021/09/08 08:55:26;;;;;;;;;0.75;0.00;;;;;24.11;45.85;100904.25;5097704;27;45510;-83
2021/09/08 08:59:05;;;;;;;;;0.00;0.00;;;;;23.64;46.13;100793.84;5087129;27;45608;-81
2021/09/08 09:08:03;;;;;;;;;1.75;1.25;;;;;23.96;45.41;100769.38;5074240;27;46836;-82
2021/09/08 09:20:53;;;;;;;;;1.75;0.00;;;;;25.17;44.79;100866.44;5093575;27;46560;-84
2021/09/08 09:23:22;;;;;;;;;1.00;1.00;;;;;24.11;44.91;100682.69;5099772;27;45294;-84
2021/09/08 09:25:59;;;;;;;;;1.00;1.00;;;;;24.15;44.43;100660.34;5091298;27;45303;-85
2021/09/08 09:28:30;;;;;;;;;0.25;0.25;;;;;24.62;44.87;100740.50;5095904;27;45463;-83
2021/09/08 09:30:55;;;;;;;;;1.25;1.00;;;;;24.41;44.29;100714.06;5096755;27;45485;-82
2021/09/08 09:33:33;;;;;;;;;2.00;1.25;;;;;25.35;44.40;100859.28;5098163;27;45182;-82
2021/09/08 09:36:27;;;;;;;;;0.25;0.25;;;;;24.21;44.41;100668.03;5090020;27;45600;-80
2021/09/08 09:38:57;;;;;;;;;0.75;0.00;;;;;24.64;44.71;100725.31;5092893;27;45248;-80
2021/09/08 09:41:33;;;;;;;;;1.25;0.50;;;;;25.51;44.46;100847.84;5083767;27;46551;-81
2021/09/08 09:44:15;;;;;;;;;1.00;0.75;;;;;24.92;44.47;100732.78;5094890;27;45590;-81
2021/09/08 09:46:45;;;;;;;;;2.00;1.25;;;;;24.40;44.08;100641.38;5092804;27;45571;-79
2021/09/08 09:49:42;;;;;;;;;1.25;0.50;;;;;24.69;44.36;100659.41;5092941;27;45266;-79
2021/09/08 09:52:07;;;;;;;;;0.00;0.00;;;;;25.73;43.77;100809.41;5087518;27;47209;-81
2021/09/08 09:54:41;;;;;;;;;0.00;0.00;;;;;24.80;43.84;100643.75;5095934;27;45343;-82
2021/09/08 09:57:08;;;;;;;;;1.50;0.75;;;;;25.92;43.51;100823.47;5092298;27;45521;-80
2021/09/08 09:59:33;;;;;;;;;0.75;0.75;;;;;26.10;44.20;100844.72;5095462;27;45333;-80
2021/09/08 10:01:59;;;;;;;;;2.00;1.00;;;;;26.12;44.08;100836.63;5090172;27;48275;-81
2021/09/08 10:04:24;;;;;;;;;1.50;1.00;;;;;26.05;43.79;100812.09;5091673;27;45525;-82
2021/09/08 10:06:52;;;;;;;;;1.00;1.00;;;;;26.20;43.87;100829.03;5103097;27;45333;-81
2021/09/08 10:09:20;;;;;;;;;0.00;0.00;;;;;26.37;43.47;100837.94;5084976;27;45501;-82
2021/09/08 10:11:49;;;;;;;;;3.50;1.25;;;;;26.36;43.78;100815.72;5087538;27;45403;-82
2021/09/08 10:14:23;;;;;;;;;2.75;1.25;;;;;26.33;43.11;100818.56;5095048;27;45401;-80
2021/09/08 10:16:49;;;;;;;;;0.50;0.50;;;;;26.44;43.69;100845.53;5089030;27;45268;-80
2021/09/08 10:19:24;;;;;;;;;1.00;1.00;;;;;26.37;43.67;100824.59;5100428;27;45488;-81
2021/09/08 10:21:51;;;;;;;;;0.25;0.25;;;;;26.46;43.69;100840.06;5092893;27;47235;-83
2021/09/08 10:24:18;;;;;;;;;0.00;0.00;;;;;26.47;43.48;100836.47;5101155;27;45468;-80
2021/09/08 10:26:45;;;;;;;;;0.00;0.00;;;;;26.37;43.01;100827.25;5087160;27;45494;-81
2021/09/08 10:29:10;;;;;;;;;2.00;0.25;;;;;26.35;43.66;100823.81;5096545;27;45493;-83
2021/09/08 10:31:50;;;;;;;;;0.00;0.00;;;;;26.53;43.75;100825.44;5100436;27;45998;-82
2021/09/08 10:34:16;;;;;;;;;1.00;1.00;;;;;26.51;44.29;100797.97;5090961;27;45288;-82
2021/09/08 10:36:43;;;;;;;;;0.25;0.25;;;;;26.69;43.00;100821.88;5100330;27;45454;-81
2021/09/08 10:39:14;;;;;;;;;1.00;1.00;;;;;26.85;43.66;100834.34;5085147;27;45184;-80
2021/09/08 10:41:42;;;;;;;;;3.00;3.00;;;;;26.88;43.18;100826.13;5098257;27;45467;-81
2021/09/08 10:44:08;;;;;;;;;1.00;0.75;;;;;26.70;42.75;100788.88;5092978;27;45560;-81
2021/09/08 10:46:54;;;;;;;;;1.00;0.00;;;;;26.64;42.64;100779.44;5086895;27;45587;-80
2021/09/08 10:49:43;;;;;;;;;0.00;0.00;;;;;26.79;43.32;100796.34;5104036;27;45350;-81
2021/09/08 10:52:14;;;;;;;;;3.00;0.50;;;;;26.89;42.83;100809.16;5079669;27;46156;-78
2021/09/08 10:54:58;;;;;;;;;0.50;0.50;;;;;26.98;42.99;100821.13;5093326;27;45618;-79
2021/09/08 10:57:44;;;;;;;;;1.25;1.00;;;;;27.05;42.79;100820.69;5077628;27;45697;-79
2021/09/08 11:00:19;;;;;;;;;1.00;0.00;;;;;27.14;43.16;100813.06;5104594;27;45475;-80
2021/09/08 11:02:45;;;;;;;;;1.00;0.75;;;;;27.07;42.57;100791.19;5079970;27;46422;-80
2021/09/08 11:05:12;;;;;;;;;2.00;0.00;;;;;27.03;42.43;100781.66;5094428;27;45566;-82
2021/09/08 11:07:42;;;;;;;;;0.75;0.75;;;;;27.14;43.10;100805.03;5094622;27;45437;-82
2021/09/08 11:10:08;;;;;;;;;2.75;1.00;;;;;27.13;43.07;100801.50;5089667;27;45547;-83
2021/09/08 11:12:51;;;;;;;;;5.00;1.00;;;;;26.82;43.05;100752.56;5088339;27;46112;-83
2021/09/08 11:15:25;;;;;;;;;0.50;0.50;;;;;27.05;42.78;100785.97;5093979;27;45464;-81
2021/09/08 11:17:53;;;;;;;;;1.75;1.00;;;;;27.20;42.83;100794.00;5093909;27;45563;-83
2021/09/08 11:20:19;;;;;;;;;1.50;1.50;;;;;27.20;42.86;100781.47;5083099;27;45389;-82
2021/09/08 11:23:17;;;;;;;;;1.00;1.00;;;;;27.30;42.76;100784.47;5092679;27;48185;-82
2021/09/08 11:25:44;;;;;;;;;1.00;1.00;;;;;27.27;42.80;100783.78;5047189;27;46075;-82
2021/09/08 11:28:11;;;;;;;;;0.25;0.25;;;;;27.23;43.17;100785.78;5098873;27;45386;-81
2021/09/08 11:30:38;;;;;;;;;0.00;0.00;;;;;27.27;43.29;100787.31;5103099;27;45336;-80
2021/09/08 11:33:11;;;;;;;;;3.00;1.50;;;;;27.19;43.04;100762.84;5089673;27;45402;-81
2021/09/08 11:35:39;;;;;;;;;1.00;1.00;;;;;27.37;42.55;100789.41;5090702;27;45332;-82
2021/09/08 11:38:10;;;;;;;;;2.00;1.00;;;;;27.23;43.10;100761.75;5095810;27;45405;-82
2021/09/08 11:40:35;;;;;;;;;0.25;0.25;;;;;27.19;42.35;100746.84;5101164;27;45458;-85
2021/09/08 11:43:00;;;;;;;;;1.75;0.25;;;;;27.31;42.80;100756.78;5089693;27;47368;-82
2021/09/08 11:45:31;;;;;;;;;1.00;0.50;;;;;27.44;42.71;100774.72;5089965;27;45464;-85
2021/09/08 11:47:57;;;;;;;;;0.00;0.00;;;;;27.35;42.70;100754.78;5081221;27;45487;-81
2021/09/08 11:50:23;;;;;;;;;0.75;0.75;;;;;27.42;42.58;100760.59;5097019;27;45630;-84
2021/09/08 11:52:59;;;;;;;;;0.00;0.00;;;;;27.42;42.55;100749.91;5094756;27;45367;-83
2021/09/08 11:55:27;;;;;;;;;0.50;0.50;;;;;27.45;42.75;100765.75;5096361;27;45557;-85
2021/09/08 11:57:53;;;;;;;;;0.50;0.50;;;;;27.46;42.61;100746.06;5098625;27;45412;-79
2021/09/08 12:00:18;;;;;;;;;1.50;0.00;;;;;27.57;42.57;100754.25;5097999;27;45512;-81
2021/09/08 12:02:44;;;;;;;;;0.25;0.25;;;;;27.72;42.98;100754.28;5094492;27;45423;-83
2021/09/08 12:05:22;;;;;;;;;0.25;0.25;;;;;27.78;42.90;100742.34;5090360;27;45331;-83
2021/09/08 12:07:48;;;;;;;;;1.00;1.00;;;;;27.86;41.98;100744.53;5087565;27;45251;-83
2021/09/08 12:10:13;;;;;;;;;0.25;0.25;;;;;27.79;42.29;100718.19;5083740;27;45192;-81
2021/09/08 12:12:38;;;;;;;;;0.50;0.50;;;;;27.87;41.87;100722.16;5087920;27;45551;-83
2021/09/08 12:15:04;;;;;;;;;0.00;0.00;;;;;27.99;42.56;100734.72;5094494;27;45510;-81
2021/09/08 12:17:31;;;;;;;;;0.00;0.00;;;;;27.97;41.63;100712.59;5095586;27;45499;-81
2021/09/08 12:19:58;;;;;;;;;0.00;0.00;;;;;28.14;42.06;100730.19;5085584;27;45515;-82
2021/09/08 12:22:34;;;;;;;;;1.00;1.00;;;;;28.13;42.38;100719.56;5096413;27;47393;-83
2021/09/08 12:25:19;;;;;;;;;1.00;0.00;;;;;28.02;41.57;100693.56;5100317;27;45444;-82
2021/09/08 12:27:46;;;;;;;;;0.00;0.00;;;;;28.17;41.94;100719.28;5079677;27;45379;-82
2021/09/08 12:30:15;;;;;;;;;1.00;1.00;;;;;28.24;41.97;100718.88;5089773;27;45430;-82
2021/09/08 12:32:46;;;;;;;;;1.75;0.00;;;;;28.27;41.68;100716.84;5087541;27;46657;-81
2021/09/08 12:35:53;;;;;;;;;0.00;0.00;;;;;28.23;41.22;100704.63;5084585;27;45445;-84
2021/09/08 12:38:30;;;;;;;;;0.50;0.50;;;;;28.25;41.42;100708.06;5086067;27;45389;-84
2021/09/08 12:41:17;;;;;;;;;1.00;1.00;;;;;28.30;42.15;100716.66;5087532;27;45359;-84
2021/09/08 12:43:58;;;;;;;;;0.00;0.00;;;;;28.33;41.78;100716.47;5092382;27;45413;-83
2021/09/08 12:46:38;;;;;;;;;0.25;0.25;;;;;28.35;41.94;100713.69;5086392;27;45539;-84
2021/09/08 12:49:06;;;;;;;;;0.00;0.00;;;;;28.33;41.60;100705.75;5085688;27;45463;-83
2021/09/08 12:51:32;;;;;;;;;0.00;0.00;;;;;28.39;41.18;100706.31;5087201;27;45465;-84
2021/09/08 12:53:57;;;;;;;;;2.00;1.00;;;;;28.40;41.36;100686.59;5089966;28;45776;-84
2021/09/08 12:56:22;;;;;;;;;1.00;1.00;;;;;28.48;41.57;100689.59;5089470;27;45914;-82
2021/09/08 12:58:48;;;;;;;;;1.00;1.00;;;;;28.56;41.49;100692.63;5086820;27;45359;-82
2021/09/08 13:01:13;;;;;;;;;0.50;0.50;;;;;28.62;41.13;100698.50;5100969;27;45526;-81
2021/09/08 13:03:39;;;;;;;;;0.00;0.00;;;;;28.56;41.46;100681.06;5083433;27;47806;-84
2021/09/08 13:06:04;;;;;;;;;0.00;0.00;;;;;28.68;41.56;100703.44;5092386;27;45509;-82
2021/09/08 13:08:29;;;;;;;;;2.50;0.00;;;;;28.63;40.76;100684.19;5082311;27;45485;-83
2021/09/08 13:10:55;;;;;;;;;1.00;1.00;;;;;28.77;40.61;100700.16;5090274;27;45473;-84
2021/09/08 13:13:21;;;;;;;;;0.00;0.00;;;;;28.77;40.75;100696.59;5082510;27;47128;-83
2021/09/08 13:15:46;;;;;;;;;4.50;2.00;;;;;28.77;41.35;100691.25;5096875;27;45502;-82
2021/09/08 13:18:11;;;;;;;;;0.00;0.00;;;;;28.96;40.80;100697.06;5084254;27;45314;-83
2021/09/08 13:20:37;;;;;;;;;0.25;0.25;;;;;28.78;40.73;100661.69;5090562;27;45299;-84
2021/09/08 13:23:04;;;;;;;;;0.75;0.75;;;;;29.09;40.13;100690.81;5084836;27;45392;-84
2021/09/08 13:25:29;;;;;;;;;0.25;0.25;;;;;29.06;40.32;100673.16;5086864;27;45413;-82
2021/09/08 13:27:55;;;;;;;;;1.00;0.25;;;;;29.23;39.73;100689.84;5084360;27;45815;-80
2021/09/08 13:30:20;;;;;;;;;0.00;0.00;;;;;29.25;40.58;100685.25;5084153;27;45370;-80
2021/09/08 13:32:45;;;;;;;;;1.50;0.00;;;;;29.26;40.69;100686.09;5084481;27;46596;-82
2021/09/08 13:35:11;;;;;;;;;1.50;1.00;;;;;29.20;40.30;100665.94;5088815;27;45390;-84
2021/09/08 13:37:36;;;;;;;;;0.50;0.50;;;;;29.34;40.51;100679.22;5089944;27;45482;-80
2021/09/08 13:40:02;;;;;;;;;0.00;0.00;;;;;29.30;39.47;100672.34;5092361;27;45226;-80
2021/09/08 13:42:28;;;;;;;;;4.00;0.00;;;;;29.28;39.62;100662.72;5091625;27;46544;-81
2021/09/08 13:44:53;;;;;;;;;1.00;1.00;;;;;29.21;39.64;100639.03;5096472;27;45342;-81
2021/09/08 13:47:19;;;;;;;;;0.25;0.00;;;;;29.43;39.41;100668.81;5109963;27;46263;-80
2021/09/08 13:49:44;;;;;;;;;0.00;0.00;;;;;29.28;39.43;100639.44;5116128;27;45298;-80
2021/09/08 13:52:09;;;;;;;;;1.75;1.00;;;;;29.39;39.42;100645.84;5093912;27;46434;-80
2021/09/08 13:54:37;;;;;;;;;0.75;0.00;;;;;29.40;39.60;100648.41;5100426;27;45290;-80
2021/09/08 13:57:02;;;;;;;;;0.75;0.00;;;;;29.40;40.00;100644.91;5092238;27;45368;-82
2021/09/08 13:59:28;;;;;;;;;1.00;1.00;;;;;29.45;39.78;100656.13;5088145;27;45588;-85
2021/09/08 14:01:55;;;;;;;;;0.50;0.50;;;;;29.44;39.92;100657.97;5088799;27;46400;-83
2021/09/08 14:04:21;;;;;;;;;1.75;0.50;;;;;29.50;40.02;100651.28;5084778;27;45465;-82
2021/09/08 14:06:46;;;;;;;;;0.00;0.00;;;;;29.44;39.94;100616.88;5086085;27;45438;-83
2021/09/08 14:09:11;;;;;;;;;1.00;0.50;;;;;29.51;39.74;100634.22;5085046;27;45236;-83
2021/09/08 14:11:37;;;;;;;;;0.00;0.00;;;;;29.32;39.78;100589.16;5087446;27;45489;-84
2021/09/08 14:14:02;;;;;;;;;2.00;0.00;;;;;29.51;39.58;100622.63;5083853;27;45148;-84
2021/09/08 14:16:27;;;;;;;;;0.00;0.00;;;;;29.70;39.41;100633.75;5084851;27;45475;-84
2021/09/08 14:18:53;;;;;;;;;0.00;0.00;;;;;29.69;39.36;100632.03;5085098;27;45532;-83
2021/09/08 14:21:18;;;;;;;;;0.25;0.25;;;;;29.69;39.22;100618.63;5086667;27;46536;-86
2021/09/08 14:23:43;;;;;;;;;0.25;0.25;;;;;29.65;39.49;100614.47;5086597;27;45739;-86
2021/09/08 14:26:09;;;;;;;;;0.00;0.00;;;;;29.79;39.45;100631.34;5088192;27;45613;-84
2021/09/08 14:28:34;;;;;;;;;0.00;0.00;;;;;29.60;39.16;100592.50;5089740;27;45620;-84
2021/09/08 14:31:00;;;;;;;;;4.00;0.50;;;;;29.82;39.02;100618.56;5091959;27;46047;-83
2021/09/08 14:33:26;;;;;;;;;0.25;0.25;;;;;29.66;39.05;100591.19;5094679;27;45367;-85
2021/09/08 14:35:51;;;;;;;;;3.00;0.00;;;;;29.78;39.17;100603.69;5083086;27;45575;-85
2021/09/08 14:38:18;;;;;;;;;0.00;0.00;;;;;29.83;39.04;100606.84;5084698;27;45357;-86
2021/09/08 14:40:43;;;;;;;;;0.00;0.00;;;;;29.50;39.07;100546.72;5083180;28;48275;-85
2021/09/08 14:43:09;;;;;;;;;0.00;0.00;;;;;29.87;38.45;100591.41;5085081;27;45319;-85